Погода Даббона неделю

Новый-Южный Уэльс, Австралия

01 - 07 февраля
  • 01февраля
    Сегодня
    +15°
    +32°
    Ясно и безоблачно
    ВремяПогодаТемператураВлажностьДавлениеВетер, м/сВероятность осадков
    02:00Ясно и безоблачно+20°C73 %726 мм2.8 м/с5 %
    05:00Ясно и безоблачно+18°C90 %725 мм2.4 м/с5 %
    08:00Ясно и безоблачно+23°C79 %727 мм3.1 м/с5 %
    11:00Ясно и безоблачно+27°C51 %727 мм3.0 м/с4 %
    14:00Ясно и безоблачно+32°C21 %726 мм4.6 м/с5 %
    17:00Ясно и безоблачно+30°C18 %725 мм5.1 м/с5 %
    20:00Ясно и безоблачно+26°C32 %725 мм3.3 м/с5 %
    23:00Ясно и безоблачно+21°C42 %726 мм2.6 м/с5 %
  • 02февраля
    Четверг
    +17°
    +31°
    Ясно и безоблачно
    ВремяПогодаТемператураВлажностьДавлениеВетер, м/сВероятность осадков
    02:00Ясно и безоблачно+18°C57 %725 мм2.8 м/с5 %
    05:00Ясно и безоблачно+16°C68 %725 мм2.5 м/с5 %
    08:00Небольшая облачность+19°C82 %725 мм3.5 м/с5 %
    11:00Ясно и безоблачно+27°C46 %725 мм3.3 м/с5 %
    14:00Ясно и безоблачно+30°C28 %724 мм5.6 м/с5 %
    17:00Облачно с прояснениями+31°C27 %722 мм6.7 м/с5 %
    20:00Практически безоблачно+27°C36 %721 мм4.4 м/с5 %
    23:00Ясно и безоблачно+23°C48 %721 мм2.9 м/с5 %
  • 03февраля
    Пятница
    +12°
    +24°
    Ясно и безоблачно
    ВремяПогодаТемператураВлажностьДавлениеВетер, м/сВероятность осадков
    02:00Практически безоблачно+21°C55 %722 мм3.6 м/с5 %
    05:00Практически безоблачно+18°C56 %722 мм3.5 м/с5 %
    08:00Ясно и безоблачно+18°C49 %724 мм5.3 м/с5 %
    11:00Ясно и безоблачно+21°C41 %724 мм5.4 м/с5 %
    14:00Ясно и безоблачно+23°C33 %724 мм6.4 м/с5 %
    17:00Ясно и безоблачно+24°C29 %723 мм6.2 м/с5 %
    20:00Ясно и безоблачно+21°C32 %725 мм5.0 м/с5 %
    23:00Ясно и безоблачно+17°C38 %727 мм4.3 м/с5 %
  • 04февраля
    Суббота
    +11°
    +25°
    Ясно и безоблачно
    ВремяПогодаТемператураВлажностьДавлениеВетер, м/сВероятность осадков
    02:00Ясно и безоблачно+14°C49 %727 мм4.0 м/с5 %
    05:00Ясно и безоблачно+12°C48 %728 мм3.2 м/с5 %
    08:00Ясно и безоблачно+14°C51 %731 мм4.2 м/с5 %
    11:00Ясно и безоблачно+19°C39 %731 мм4.3 м/с5 %
    14:00Ясно и безоблачно+23°C24 %731 мм5.0 м/с5 %
    17:00Ясно и безоблачно+25°C22 %731 мм5.1 м/с5 %
    20:00Ясно и безоблачно+21°C30 %731 мм3.5 м/с5 %
    23:00Ясно и безоблачно+16°C45 %733 мм2.2 м/с5 %
  • 05февраля
    Воскресенье
    +16°
    +30°
    Ясно и безоблачно
    ВремяПогодаТемператураВлажностьДавлениеВетер, м/сВероятность осадков
    02:00Ясно и безоблачно+14°C54 %733 мм2.9 м/с5 %
    05:00Ясно и безоблачно+12°C63 %733 мм2.9 м/с5 %
    08:00Ясно и безоблачно+16°C57 %735 мм3.4 м/с5 %
    11:00Ясно и безоблачно+24°C31 %735 мм3.9 м/с5 %
    14:00Ясно и безоблачно+28°C22 %734 мм2.2 м/с5 %
    17:00Ясно и безоблачно+30°C19 %733 мм2.5 м/с5 %
    20:00Ясно и безоблачно+26°C30 %733 мм2.3 м/с5 %
    23:00Ясно и безоблачно+21°C37 %734 мм2.8 м/с5 %
Мы используем cookies
Соглашаюсь